createdAt,value
2023-05-05T00:00:21.562Z,6.10
2023-05-05T00:01:44.524Z,6.30
2023-05-05T00:02:48.235Z,6.50
2023-05-05T00:03:51.193Z,6.40
2023-05-05T00:04:54.521Z,6.40
2023-05-05T00:05:58.104Z,6.70
2023-05-05T00:07:01.059Z,7.10
2023-05-05T00:08:04.248Z,6.80
2023-05-05T00:09:07.168Z,6.10
2023-05-05T00:10:10.641Z,6.90
2023-05-05T00:11:13.512Z,6.80
2023-05-05T00:12:16.487Z,6.70
2023-05-05T00:13:21.502Z,7.40
2023-05-05T00:14:24.347Z,6.40
2023-05-05T00:15:27.580Z,6.40
2023-05-05T00:16:30.621Z,6.60
2023-05-05T00:17:33.596Z,6.30
2023-05-05T00:18:36.518Z,6.70
2023-05-05T00:19:39.384Z,7.00
2023-05-05T00:20:42.974Z,7.10
2023-05-05T00:21:45.961Z,7.40
2023-05-05T00:22:48.909Z,6.80
2023-05-05T00:23:51.793Z,6.60
2023-05-05T00:24:54.670Z,6.80
2023-05-05T00:25:57.573Z,7.00
2023-05-05T00:27:02.258Z,6.80
2023-05-05T00:28:05.591Z,6.80
2023-05-05T00:29:08.617Z,6.10
2023-05-05T00:30:11.729Z,6.10
2023-05-05T00:31:18.073Z,6.60
2023-05-05T00:32:20.986Z,6.40
2023-05-05T00:33:24.150Z,7.40
2023-05-05T00:34:27.043Z,6.20
2023-05-05T00:35:29.856Z,7.30
2023-05-05T00:36:32.721Z,6.50
2023-05-05T00:37:36.127Z,6.50
2023-05-05T00:38:39.338Z,6.90
2023-05-05T00:39:42.180Z,7.40
2023-05-05T00:40:45.050Z,7.00
2023-05-05T00:41:47.903Z,6.90
2023-05-05T00:42:50.999Z,7.20
2023-05-05T00:43:54.191Z,6.40
2023-05-05T00:44:57.516Z,7.00
2023-05-05T00:46:04.084Z,7.30
2023-05-05T00:47:08.415Z,7.00
2023-05-05T00:48:11.659Z,7.50
2023-05-05T00:49:14.758Z,6.60
2023-05-05T00:50:23.762Z,6.70
2023-05-05T00:51:28.306Z,7.50
2023-05-05T00:52:31.563Z,6.90
2023-05-05T00:53:35.016Z,7.30
2023-05-05T00:54:38.363Z,7.10
2023-05-05T00:55:41.874Z,6.90
2023-05-05T00:56:45.982Z,7.50
2023-05-05T00:57:49.460Z,7.40
2023-05-05T00:58:52.405Z,7.20
2023-05-05T00:59:56.123Z,7.00
2023-05-05T01:00:59.067Z,7.80
2023-05-05T01:02:02.024Z,7.40
2023-05-05T01:03:05.705Z,7.40
2023-05-05T01:04:09.020Z,8.00
2023-05-05T01:05:14.545Z,7.10
2023-05-05T01:06:38.960Z,6.50
2023-05-05T01:07:50.112Z,7.00
2023-05-05T01:09:09.022Z,7.50
2023-05-05T01:10:41.046Z,7.50
2023-05-05T01:11:49.781Z,7.30
2023-05-05T01:13:13.984Z,7.30
2023-05-05T01:14:20.619Z,6.60
2023-05-05T01:15:37.737Z,7.10
2023-05-05T01:16:48.347Z,7.60
2023-05-05T01:17:59.682Z,7.60
2023-05-05T01:19:16.360Z,7.50
2023-05-05T01:20:29.167Z,7.20
2023-05-05T01:21:46.738Z,7.00
2023-05-05T01:22:59.824Z,6.90
2023-05-05T01:24:24.078Z,6.60
2023-05-05T01:26:02.653Z,7.20
2023-05-05T01:27:11.638Z,7.20
2023-05-05T01:29:00.846Z,7.00
2023-05-05T01:30:25.076Z,6.90
2023-05-05T01:31:43.059Z,7.00
2023-05-05T01:32:55.437Z,6.50
2023-05-05T01:34:06.423Z,6.50
2023-05-05T01:35:20.756Z,6.60
2023-05-05T01:36:35.351Z,6.90
2023-05-05T01:38:15.748Z,6.60
2023-05-05T01:39:20.069Z,6.30
2023-05-05T01:40:26.941Z,6.90
2023-05-05T01:41:46.657Z,7.00
2023-05-05T01:43:57.150Z,6.10
2023-05-05T01:45:03.014Z,6.30
2023-05-05T01:46:08.230Z,6.70
2023-05-05T01:47:17.017Z,6.10
2023-05-05T01:48:21.184Z,6.10
2023-05-05T01:49:24.684Z,6.10
2023-05-05T01:50:29.415Z,6.50
2023-05-05T01:51:34.930Z,6.80
2023-05-05T01:52:41.319Z,5.90
2023-05-05T01:53:47.260Z,6.60
2023-05-05T01:54:51.366Z,6.50
2023-05-05T01:55:56.121Z,6.00
2023-05-05T01:56:59.744Z,6.50
2023-05-05T01:58:05.842Z,6.20
2023-05-05T01:59:10.537Z,5.70
2023-05-05T02:00:16.894Z,6.40
2023-05-05T02:01:26.187Z,6.50
2023-05-05T02:02:30.496Z,6.00
2023-05-05T02:03:35.626Z,6.10
2023-05-05T02:04:42.759Z,6.30
2023-05-05T02:05:47.615Z,6.30
2023-05-05T02:06:53.279Z,6.00
2023-05-05T02:07:59.739Z,5.90
2023-05-05T02:09:03.730Z,6.30
2023-05-05T02:10:08.215Z,6.00
2023-05-05T02:11:12.695Z,7.10
2023-05-05T02:12:18.621Z,6.60
2023-05-05T02:13:24.789Z,6.40
2023-05-05T02:14:29.645Z,5.80
2023-05-05T02:15:34.337Z,6.20
2023-05-05T02:16:41.381Z,6.30
2023-05-05T02:17:46.704Z,6.20
2023-05-05T02:18:50.867Z,6.40
2023-05-05T02:19:55.923Z,5.70
2023-05-05T02:20:58.991Z,5.90
2023-05-05T02:22:02.575Z,5.70
2023-05-05T02:23:07.907Z,5.80
2023-05-05T02:24:11.577Z,5.80
2023-05-05T02:25:14.891Z,5.90
2023-05-05T02:26:21.815Z,5.40
2023-05-05T02:27:26.834Z,5.80
2023-05-05T02:28:42.472Z,5.70
2023-05-05T02:29:52.094Z,6.20
2023-05-05T02:31:00.174Z,6.20
2023-05-05T02:32:12.168Z,6.20
2023-05-05T02:33:19.176Z,5.70
2023-05-05T02:34:27.662Z,6.20
2023-05-05T02:35:40.440Z,5.70
2023-05-05T02:36:47.856Z,5.90
2023-05-05T02:38:04.928Z,6.30
2023-05-05T02:39:20.665Z,6.40
2023-05-05T02:40:27.543Z,6.30
2023-05-05T02:41:33.638Z,5.80
2023-05-05T02:42:46.619Z,5.70
2023-05-05T02:43:51.266Z,7.00
2023-05-05T02:44:59.779Z,5.90
2023-05-05T02:46:03.218Z,6.00
2023-05-05T02:47:07.925Z,5.90
2023-05-05T02:48:13.075Z,6.20
2023-05-05T02:49:16.236Z,6.30
2023-05-05T02:50:20.178Z,5.90
2023-05-05T02:51:30.051Z,6.50
2023-05-05T02:52:35.618Z,6.40
2023-05-05T02:53:39.201Z,6.40
2023-05-05T02:54:42.071Z,5.90
2023-05-05T02:55:57.380Z,6.30
2023-05-05T02:57:03.163Z,5.80
2023-05-05T02:58:17.303Z,6.20
2023-05-05T02:59:29.872Z,6.60
2023-05-05T03:00:50.757Z,6.00
2023-05-05T03:02:07.759Z,6.20
2023-05-05T03:03:36.708Z,6.80
2023-05-05T03:04:43.128Z,5.90
2023-05-05T03:06:05.322Z,6.30
2023-05-05T03:07:15.921Z,5.90
2023-05-05T03:08:28.487Z,5.90
2023-05-05T03:09:41.639Z,6.10
2023-05-05T03:10:51.193Z,6.50
2023-05-05T03:12:00.989Z,6.30
2023-05-05T03:13:07.622Z,6.20
2023-05-05T03:14:18.381Z,7.30
2023-05-05T03:15:26.893Z,6.80
2023-05-05T03:16:35.266Z,7.10
2023-05-05T03:17:41.523Z,8.50
2023-05-05T03:18:50.046Z,7.60
2023-05-05T03:19:53.518Z,6.80
2023-05-05T03:20:57.166Z,6.70
2023-05-05T03:22:00.800Z,7.80
2023-05-05T03:23:04.212Z,7.30
2023-05-05T03:24:19.439Z,7.10
2023-05-05T03:25:46.107Z,6.40
2023-05-05T03:26:54.772Z,6.50
2023-05-05T03:27:59.533Z,6.60
2023-05-05T03:29:02.696Z,7.30
2023-05-05T03:30:07.493Z,6.60
2023-05-05T03:31:12.697Z,7.50
2023-05-05T03:32:16.443Z,6.90
2023-05-05T03:33:19.824Z,7.10
2023-05-05T03:34:22.995Z,5.80
2023-05-05T03:35:26.012Z,7.00
2023-05-05T03:36:29.745Z,6.60
2023-05-05T03:37:33.181Z,6.70
2023-05-05T03:38:36.478Z,6.80
2023-05-05T03:39:39.784Z,6.70
2023-05-05T03:40:44.559Z,6.30
2023-05-05T03:41:49.672Z,7.00
2023-05-05T03:42:53.047Z,6.30
2023-05-05T03:43:56.149Z,6.30
2023-05-05T03:44:59.031Z,6.70
2023-05-05T03:46:02.680Z,6.50
2023-05-05T03:47:06.058Z,6.90
2023-05-05T03:48:10.158Z,6.40
2023-05-05T03:49:14.360Z,6.60
2023-05-05T03:50:18.253Z,6.40
2023-05-05T03:51:21.363Z,6.40
2023-05-05T03:52:24.421Z,7.00
2023-05-05T03:53:27.664Z,6.30
2023-05-05T03:54:31.318Z,7.00
2023-05-05T03:55:34.309Z,6.50
2023-05-05T03:56:37.502Z,6.80
2023-05-05T03:57:40.388Z,7.30
2023-05-05T03:58:43.281Z,7.00
2023-05-05T03:59:46.686Z,7.20
2023-05-05T04:00:49.726Z,7.00
2023-05-05T04:01:53.559Z,6.80
2023-05-05T04:02:56.842Z,6.50
2023-05-05T04:04:00.088Z,6.50
2023-05-05T04:05:03.039Z,6.80
2023-05-05T04:06:06.136Z,6.60
2023-05-05T04:07:09.297Z,7.20
2023-05-05T04:08:12.372Z,6.30
2023-05-05T04:09:15.275Z,6.60
2023-05-05T04:10:18.656Z,6.20
2023-05-05T04:11:22.063Z,6.50
2023-05-05T04:12:24.984Z,6.40
2023-05-05T04:13:28.453Z,6.00
2023-05-05T04:14:31.442Z,5.80
2023-05-05T04:15:34.911Z,7.60
2023-05-05T04:16:37.925Z,6.00
2023-05-05T04:17:40.831Z,6.40
2023-05-05T04:18:44.465Z,7.10
2023-05-05T04:19:47.341Z,7.20
2023-05-05T04:20:50.253Z,6.20
2023-05-05T04:21:53.200Z,6.70
2023-05-05T04:22:56.137Z,5.90
2023-05-05T04:24:00.882Z,6.80
2023-05-05T04:25:04.213Z,6.80
2023-05-05T04:26:07.267Z,6.50
2023-05-05T04:27:10.351Z,6.40
2023-05-05T04:28:13.277Z,6.30
2023-05-05T04:29:16.505Z,6.00
2023-05-05T04:30:19.513Z,6.50
2023-05-05T04:31:22.500Z,6.20
2023-05-05T04:32:25.716Z,6.40
2023-05-05T04:33:28.684Z,6.30
2023-05-05T04:34:31.822Z,6.20
2023-05-05T04:35:34.814Z,6.40
2023-05-05T04:36:38.335Z,6.20
2023-05-05T04:37:41.860Z,5.80
2023-05-05T04:38:45.156Z,6.30
2023-05-05T04:39:48.510Z,6.20
2023-05-05T04:40:51.462Z,6.00
2023-05-05T04:41:54.385Z,6.70
2023-05-05T04:42:57.508Z,6.00
2023-05-05T04:44:00.402Z,6.30
2023-05-05T04:45:03.959Z,5.80
2023-05-05T04:46:07.128Z,5.40
2023-05-05T04:47:13.203Z,5.70
2023-05-05T04:48:17.612Z,6.00
2023-05-05T04:49:20.599Z,5.90
2023-05-05T04:50:23.490Z,5.60
2023-05-05T04:51:27.748Z,5.80
2023-05-05T04:52:30.823Z,5.60
2023-05-05T04:53:33.848Z,5.60
2023-05-05T04:54:37.516Z,5.50
2023-05-05T04:55:40.611Z,6.10
2023-05-05T04:56:43.493Z,5.30
2023-05-05T04:57:46.310Z,5.00
2023-05-05T04:58:50.562Z,5.20
2023-05-05T04:59:53.530Z,5.10
2023-05-05T05:00:56.452Z,5.10
2023-05-05T05:01:59.322Z,5.20
2023-05-05T05:03:02.554Z,4.80
2023-05-05T05:04:05.742Z,5.40
2023-05-05T05:05:09.615Z,5.50
2023-05-05T05:06:12.821Z,5.00
2023-05-05T05:07:15.778Z,5.10
2023-05-05T05:08:18.971Z,5.90
2023-05-05T05:09:21.873Z,5.60
2023-05-05T05:10:24.816Z,5.80
2023-05-05T05:11:28.100Z,5.40
2023-05-05T05:12:31.220Z,5.20
2023-05-05T05:13:34.481Z,6.10
2023-05-05T05:14:38.348Z,5.20
2023-05-05T05:15:42.060Z,5.60
2023-05-05T05:16:45.200Z,12.90
2023-05-05T05:17:48.237Z,5.60
2023-05-05T05:18:51.149Z,5.60
2023-05-05T05:19:55.461Z,4.80
2023-05-05T05:20:58.636Z,4.30
2023-05-05T05:22:01.840Z,5.20
2023-05-05T05:23:05.661Z,4.50
2023-05-05T05:24:11.645Z,4.70
2023-05-05T05:25:14.705Z,4.60
2023-05-05T05:26:18.311Z,4.70
2023-05-05T05:27:21.234Z,5.10
2023-05-05T05:28:24.735Z,5.10
2023-05-05T05:29:30.966Z,5.30
2023-05-05T05:30:34.413Z,4.60
2023-05-05T05:31:37.956Z,4.90
2023-05-05T05:32:40.962Z,4.90
2023-05-05T05:33:43.993Z,4.40
2023-05-05T05:34:48.045Z,4.60
2023-05-05T05:35:52.270Z,5.00
2023-05-05T05:36:56.174Z,4.60
2023-05-05T05:37:59.179Z,4.90
2023-05-05T05:39:02.276Z,5.10
2023-05-05T05:40:06.142Z,5.00
2023-05-05T05:41:09.312Z,5.20
2023-05-05T05:42:13.042Z,5.10
2023-05-05T05:43:16.399Z,5.50
2023-05-05T05:44:19.267Z,5.00
2023-05-05T05:45:23.341Z,6.10
2023-05-05T05:46:26.260Z,5.30
2023-05-05T05:47:29.247Z,4.70
2023-05-05T05:48:32.666Z,5.30
2023-05-05T05:49:35.610Z,5.60
2023-05-05T05:50:38.516Z,6.40
2023-05-05T05:51:41.467Z,5.90
2023-05-05T05:52:44.509Z,6.10
2023-05-05T05:53:47.271Z,6.20
2023-05-05T05:54:50.299Z,6.10
2023-05-05T05:55:53.185Z,5.30
2023-05-05T05:56:56.126Z,5.10
2023-05-05T05:57:58.958Z,6.20
2023-05-05T05:59:02.777Z,5.60
2023-05-05T06:00:06.681Z,7.30
2023-05-05T06:01:16.023Z,5.50
2023-05-05T06:02:20.991Z,5.60
2023-05-05T06:03:24.433Z,5.60
2023-05-05T06:04:27.505Z,6.20
2023-05-05T06:05:31.458Z,5.80
2023-05-05T06:06:34.750Z,6.20
2023-05-05T06:07:37.720Z,5.30
2023-05-05T06:08:40.813Z,6.40
2023-05-05T06:09:47.261Z,6.00
2023-05-05T06:10:51.046Z,6.70
2023-05-05T06:11:55.320Z,6.30
2023-05-05T06:12:58.281Z,6.40
2023-05-05T06:14:01.510Z,6.50
2023-05-05T06:15:04.830Z,7.00
2023-05-05T06:16:08.012Z,7.40
2023-05-05T06:17:10.993Z,5.40
2023-05-05T06:18:13.932Z,6.30
2023-05-05T06:19:17.149Z,5.70
2023-05-05T06:20:20.375Z,5.80
2023-05-05T06:21:23.493Z,6.00
2023-05-05T06:22:27.322Z,6.10
2023-05-05T06:23:30.440Z,5.90
2023-05-05T06:25:43.335Z,5.40
2023-05-05T06:26:46.155Z,5.30
2023-05-05T06:27:49.046Z,5.60
2023-05-05T06:28:51.909Z,5.80
2023-05-05T06:29:54.776Z,5.80
2023-05-05T06:30:58.283Z,6.00
2023-05-05T06:32:08.392Z,6.00
2023-05-05T06:33:11.361Z,6.00
2023-05-05T06:34:14.298Z,6.60
2023-05-05T06:35:17.309Z,5.90
2023-05-05T06:36:20.201Z,6.30
2023-05-05T06:37:23.215Z,5.90
2023-05-05T06:38:26.800Z,5.20
2023-05-05T06:39:29.827Z,6.10
2023-05-05T06:40:32.779Z,5.80
2023-05-05T06:41:35.700Z,6.00
2023-05-05T06:42:38.560Z,5.90
2023-05-05T06:43:45.160Z,6.20
2023-05-05T06:44:49.578Z,7.00
2023-05-05T06:45:52.415Z,6.60
2023-05-05T06:46:55.368Z,6.30
2023-05-05T06:47:58.332Z,6.00
2023-05-05T06:49:01.194Z,6.90
2023-05-05T06:50:04.490Z,6.40
2023-05-05T06:51:07.601Z,5.90
2023-05-05T06:52:10.759Z,6.30
2023-05-05T06:53:13.667Z,6.00
2023-05-05T06:54:16.745Z,6.60
2023-05-05T06:55:19.672Z,6.30
2023-05-05T06:56:24.092Z,6.00
2023-05-05T06:57:27.292Z,6.10
2023-05-05T06:58:30.148Z,5.80
2023-05-05T06:59:33.018Z,5.80
2023-05-05T07:00:35.971Z,5.70
2023-05-05T07:01:38.873Z,6.40
2023-05-05T07:02:41.864Z,5.30
2023-05-05T07:03:45.069Z,5.10
2023-05-05T07:04:48.056Z,5.30
2023-05-05T07:05:50.937Z,4.90
2023-05-05T07:06:55.336Z,5.40
2023-05-05T07:07:58.335Z,5.20
2023-05-05T07:09:01.253Z,5.00
2023-05-05T07:10:04.707Z,5.40
2023-05-05T07:11:07.552Z,5.40
2023-05-05T07:12:10.530Z,5.50
2023-05-05T07:13:16.485Z,4.90
2023-05-05T07:14:20.611Z,5.20
2023-05-05T07:15:29.156Z,5.40
2023-05-05T07:16:34.848Z,4.40
2023-05-05T07:17:37.833Z,4.90
2023-05-05T07:18:40.830Z,4.50
2023-05-05T07:19:44.354Z,5.30
2023-05-05T07:20:47.970Z,4.70
2023-05-05T07:21:52.174Z,4.60
2023-05-05T07:22:55.151Z,4.80
2023-05-05T07:23:58.076Z,4.50
2023-05-05T07:25:01.192Z,4.80
2023-05-05T07:26:04.252Z,4.40
2023-05-05T07:27:07.561Z,4.50
2023-05-05T07:28:11.125Z,4.80
2023-05-05T07:29:14.034Z,4.20
2023-05-05T07:30:18.694Z,4.30
2023-05-05T07:31:31.336Z,4.40
2023-05-05T07:32:34.816Z,4.50
2023-05-05T07:33:37.758Z,4.40
2023-05-05T07:34:40.717Z,4.20
2023-05-05T07:35:43.558Z,4.60
2023-05-05T07:36:46.966Z,4.20
2023-05-05T07:37:50.000Z,4.30
2023-05-05T07:38:52.956Z,4.70
2023-05-05T07:39:55.810Z,4.30
2023-05-05T07:40:59.058Z,4.40
2023-05-05T07:42:02.055Z,5.30
2023-05-05T07:43:05.147Z,3.80
2023-05-05T07:44:08.868Z,4.60
2023-05-05T07:45:11.741Z,3.70
2023-05-05T07:46:14.916Z,4.60
2023-05-05T07:47:17.796Z,4.00
2023-05-05T07:48:20.828Z,4.20
2023-05-05T07:49:23.715Z,3.70
2023-05-05T07:50:27.228Z,4.30
2023-05-05T07:51:33.280Z,4.00
2023-05-05T07:52:44.954Z,4.50
2023-05-05T07:53:51.028Z,4.30
2023-05-05T07:54:53.942Z,3.90
2023-05-05T07:55:56.805Z,3.60
2023-05-05T07:56:59.828Z,4.20
2023-05-05T07:58:03.855Z,3.90
2023-05-05T07:59:06.705Z,3.50
2023-05-05T08:00:11.033Z,3.30
2023-05-05T08:01:17.358Z,3.90
2023-05-05T08:02:22.090Z,4.20
2023-05-05T08:03:25.363Z,4.00
2023-05-05T08:04:28.463Z,3.60
2023-05-05T08:05:31.399Z,4.00
2023-05-05T08:06:34.648Z,3.70
2023-05-05T08:07:41.342Z,4.10
2023-05-05T08:08:44.549Z,4.00
2023-05-05T08:09:47.399Z,3.70
2023-05-05T08:10:51.701Z,4.30
2023-05-05T08:11:54.537Z,3.90
2023-05-05T08:12:57.409Z,3.90
2023-05-05T08:14:00.296Z,3.60
2023-05-05T08:15:04.350Z,3.40
2023-05-05T08:16:07.481Z,3.40
2023-05-05T08:17:11.194Z,4.00
2023-05-05T08:18:14.465Z,3.60
2023-05-05T08:19:28.083Z,3.60
2023-05-05T08:20:32.156Z,3.60
2023-05-05T08:21:34.967Z,3.90
2023-05-05T08:22:37.858Z,3.40
2023-05-05T08:23:40.863Z,4.00
2023-05-05T08:24:43.722Z,3.30
2023-05-05T08:25:46.649Z,4.00
2023-05-05T08:26:49.607Z,4.10
2023-05-05T08:27:52.645Z,3.80
2023-05-05T08:28:56.854Z,3.40
2023-05-05T08:29:59.696Z,3.90
2023-05-05T08:31:04.447Z,4.00
2023-05-05T08:32:07.416Z,3.60
2023-05-05T08:33:10.286Z,3.70
2023-05-05T08:34:13.250Z,3.70
2023-05-05T08:35:16.306Z,3.30
2023-05-05T08:36:19.275Z,3.30
2023-05-05T08:37:22.285Z,4.10
2023-05-05T08:38:25.259Z,3.20
2023-05-05T08:39:28.173Z,3.30
2023-05-05T08:40:36.574Z,4.80
2023-05-05T08:41:39.525Z,3.40
2023-05-05T08:42:42.847Z,3.00
2023-05-05T08:43:50.535Z,3.60
2023-05-05T08:44:53.407Z,3.50
2023-05-05T08:45:57.357Z,3.60
2023-05-05T08:47:01.956Z,3.80
2023-05-05T08:48:05.815Z,3.40
2023-05-05T08:49:15.386Z,3.50
2023-05-05T08:51:25.990Z,3.50
2023-05-05T08:52:37.436Z,3.70
2023-05-05T08:53:45.924Z,3.30
2023-05-05T08:55:00.929Z,3.50
2023-05-05T08:56:05.018Z,3.80
2023-05-05T08:57:09.601Z,3.50
2023-05-05T08:58:14.007Z,3.90
2023-05-05T08:59:17.488Z,3.50
2023-05-05T09:00:21.284Z,4.00
2023-05-05T09:01:24.328Z,3.70
2023-05-05T09:02:29.988Z,3.50
2023-05-05T09:03:33.929Z,3.60
2023-05-05T09:04:37.173Z,3.60
2023-05-05T09:05:42.145Z,4.00
2023-05-05T09:06:45.115Z,3.50
2023-05-05T09:07:48.085Z,3.30
2023-05-05T09:08:51.322Z,3.90
2023-05-05T09:09:54.348Z,3.90
2023-05-05T09:10:57.485Z,4.10
2023-05-05T09:12:02.010Z,3.40
2023-05-05T09:13:05.969Z,4.10
2023-05-05T09:15:29.474Z,3.80
2023-05-05T09:16:32.339Z,3.50
2023-05-05T09:17:35.316Z,3.30
2023-05-05T09:18:38.373Z,3.10
2023-05-05T09:20:04.715Z,3.60
2023-05-05T09:21:28.128Z,3.60
2023-05-05T09:22:51.395Z,3.70
2023-05-05T09:24:11.371Z,3.20
2023-05-05T09:25:16.982Z,3.30
2023-05-05T09:26:25.364Z,3.60
2023-05-05T09:27:28.480Z,3.70
2023-05-05T09:28:32.311Z,2.80
2023-05-05T09:29:35.392Z,3.20
2023-05-05T09:30:39.756Z,3.50
2023-05-05T09:31:42.863Z,2.70
2023-05-05T09:32:51.235Z,3.50
2023-05-05T09:33:54.186Z,3.70
2023-05-05T09:34:59.175Z,3.40
2023-05-05T09:36:02.007Z,3.50
2023-05-05T09:37:06.419Z,2.90
2023-05-05T09:38:12.430Z,2.80
2023-05-05T09:39:20.338Z,3.10
2023-05-05T09:40:23.232Z,3.40
2023-05-05T09:41:43.859Z,2.70
2023-05-05T09:42:47.489Z,3.50
2023-05-05T09:43:52.137Z,3.30
2023-05-05T09:44:59.689Z,3.00
2023-05-05T09:46:07.980Z,3.10
2023-05-05T09:47:26.020Z,2.90
2023-05-05T09:48:32.456Z,2.70
2023-05-05T09:49:36.870Z,3.60
2023-05-05T09:50:44.323Z,3.00
2023-05-05T09:51:48.276Z,3.40
2023-05-05T09:52:59.235Z,2.80
2023-05-05T09:54:02.180Z,3.10
2023-05-05T09:55:05.495Z,2.90
2023-05-05T09:56:09.016Z,2.80
2023-05-05T09:57:29.487Z,3.00
2023-05-05T09:58:32.461Z,4.60
2023-05-05T09:59:35.737Z,2.50
2023-05-05T10:00:39.685Z,3.20
2023-05-05T10:01:43.878Z,2.90
2023-05-05T10:02:46.956Z,2.80
2023-05-05T10:03:52.233Z,2.70
2023-05-05T10:05:14.786Z,2.90
2023-05-05T10:06:17.852Z,2.60
2023-05-05T10:07:24.205Z,2.60
2023-05-05T10:08:28.720Z,2.80
2023-05-05T10:09:34.323Z,3.00
2023-05-05T10:10:39.995Z,2.70
2023-05-05T10:11:44.794Z,2.50
2023-05-05T10:12:49.812Z,2.90
2023-05-05T10:13:53.541Z,2.80
2023-05-05T10:14:57.608Z,2.40
2023-05-05T10:16:03.422Z,2.50
2023-05-05T10:17:09.079Z,2.90
2023-05-05T10:18:19.234Z,2.80
2023-05-05T10:19:23.899Z,2.60
2023-05-05T10:20:27.253Z,2.60
2023-05-05T10:21:34.442Z,2.80
2023-05-05T10:22:39.412Z,2.80
2023-05-05T10:23:49.642Z,3.10
2023-05-05T10:25:01.816Z,3.10
2023-05-05T10:26:07.739Z,2.90
2023-05-05T10:27:15.757Z,2.60
2023-05-05T10:28:27.123Z,3.30
2023-05-05T10:29:36.070Z,2.50
2023-05-05T10:30:44.304Z,2.60
2023-05-05T10:31:52.383Z,2.40
2023-05-05T10:33:22.292Z,2.60
2023-05-05T10:34:39.933Z,2.50
2023-05-05T10:35:46.869Z,2.40
2023-05-05T10:36:51.015Z,2.50
2023-05-05T10:37:55.529Z,2.40
2023-05-05T10:38:59.966Z,2.30
2023-05-05T10:40:03.644Z,2.60
2023-05-05T10:41:08.254Z,2.20
2023-05-05T10:42:13.430Z,2.50
2023-05-05T10:43:16.841Z,2.30
2023-05-05T10:44:19.916Z,2.50
2023-05-05T10:45:22.758Z,2.30
2023-05-05T10:46:27.372Z,2.70
2023-05-05T10:47:32.053Z,2.30
2023-05-05T10:48:42.411Z,2.60
2023-05-05T10:49:52.243Z,2.20
2023-05-05T10:51:06.243Z,2.40
2023-05-05T10:52:37.831Z,2.20
2023-05-05T10:54:10.455Z,2.00
2023-05-05T10:55:31.577Z,2.40
2023-05-05T10:56:36.137Z,2.90
2023-05-05T10:57:44.294Z,2.20
2023-05-05T10:58:58.864Z,2.30
2023-05-05T11:00:02.432Z,1.80
2023-05-05T11:01:06.980Z,1.90
2023-05-05T11:02:22.781Z,2.00
2023-05-05T11:03:26.281Z,2.60
2023-05-05T11:04:29.281Z,2.20
2023-05-05T11:05:32.556Z,2.20
2023-05-05T11:06:35.516Z,2.10
2023-05-05T11:07:38.838Z,2.40
2023-05-05T11:08:43.704Z,2.10
2023-05-05T11:09:57.767Z,2.30
2023-05-05T11:11:00.918Z,1.90
2023-05-05T11:12:05.544Z,2.10
2023-05-05T11:13:08.511Z,1.90
2023-05-05T11:14:20.071Z,2.30
2023-05-05T11:15:33.564Z,2.20
2023-05-05T11:16:49.987Z,2.30
2023-05-05T11:17:54.495Z,2.70
2023-05-05T11:18:57.521Z,2.30
2023-05-05T11:20:00.390Z,2.30
2023-05-05T11:21:04.670Z,2.00
2023-05-05T11:22:07.540Z,1.90
2023-05-05T11:23:10.394Z,1.90
2023-05-05T11:24:29.506Z,1.80
2023-05-05T11:25:41.169Z,2.20
2023-05-05T11:26:51.910Z,1.90
2023-05-05T11:28:13.743Z,2.20
2023-05-05T11:29:16.685Z,1.80
2023-05-05T11:30:19.590Z,1.90
2023-05-05T11:31:22.798Z,1.90
2023-05-05T11:32:25.711Z,2.20
2023-05-05T11:33:34.027Z,2.00
2023-05-05T11:34:49.088Z,1.90
2023-05-05T11:35:59.058Z,1.80
2023-05-05T11:37:03.390Z,1.90
2023-05-05T11:38:08.317Z,1.90
2023-05-05T11:39:35.517Z,2.00
2023-05-05T11:40:44.430Z,2.00
2023-05-05T11:42:20.277Z,2.40
2023-05-05T11:43:23.233Z,1.90
2023-05-05T11:44:33.622Z,2.20
2023-05-05T11:45:36.962Z,1.70
2023-05-05T11:46:41.256Z,1.80
2023-05-05T11:47:44.261Z,2.00
2023-05-05T11:48:53.024Z,1.60
2023-05-05T11:49:56.363Z,2.00
2023-05-05T11:51:02.407Z,1.80
2023-05-05T11:52:15.132Z,2.00
2023-05-05T11:53:19.352Z,1.80
2023-05-05T11:54:22.472Z,1.90
2023-05-05T11:55:25.646Z,1.70
2023-05-05T11:56:28.656Z,1.70
2023-05-05T11:57:31.731Z,1.90
2023-05-05T11:58:34.619Z,2.30
2023-05-05T11:59:54.899Z,2.10
2023-05-05T12:00:57.789Z,1.80
2023-05-05T12:02:00.844Z,2.10
2023-05-05T12:03:04.563Z,1.90
2023-05-05T12:04:11.459Z,3.00
2023-05-05T12:05:20.007Z,2.30
2023-05-05T12:06:23.558Z,1.70
2023-05-05T12:07:29.087Z,3.80
2023-05-05T12:08:42.203Z,4.20
2023-05-05T12:09:46.476Z,1.80
2023-05-05T12:10:49.332Z,1.90
2023-05-05T12:11:53.537Z,1.90
2023-05-05T12:12:56.596Z,1.90
2023-05-05T12:14:12.090Z,1.40
2023-05-05T12:15:14.979Z,2.00
2023-05-05T12:16:19.520Z,1.90
2023-05-05T12:17:23.452Z,1.70
2023-05-05T12:18:26.341Z,2.10
2023-05-05T12:19:33.160Z,2.00
2023-05-05T12:20:36.740Z,2.00
2023-05-05T12:21:39.579Z,3.90
2023-05-05T12:22:42.603Z,2.10
2023-05-05T12:23:46.022Z,1.90
2023-05-05T12:25:04.754Z,2.00
2023-05-05T12:26:08.110Z,2.20
2023-05-05T12:27:12.173Z,4.00
2023-05-05T12:28:15.158Z,2.30
2023-05-05T12:29:29.173Z,2.20
2023-05-05T12:30:32.157Z,1.80
2023-05-05T12:31:38.874Z,1.90
2023-05-05T12:32:42.353Z,1.70
2023-05-05T12:33:45.957Z,1.70
2023-05-05T12:34:50.548Z,2.00
2023-05-05T12:35:53.583Z,2.00
2023-05-05T12:36:56.516Z,1.90
2023-05-05T12:38:00.001Z,2.10
2023-05-05T12:39:05.341Z,1.50
2023-05-05T12:40:47.210Z,1.80
2023-05-05T12:41:50.626Z,1.80
2023-05-05T12:42:53.788Z,1.70
2023-05-05T12:43:58.487Z,1.70
2023-05-05T12:45:02.020Z,2.10
2023-05-05T12:46:06.727Z,2.00
2023-05-05T12:47:11.241Z,1.70
2023-05-05T12:48:23.471Z,1.80
2023-05-05T12:49:26.426Z,1.80
2023-05-05T12:50:31.516Z,1.90
2023-05-05T12:51:36.729Z,1.60
2023-05-05T12:52:43.163Z,1.70
2023-05-05T12:53:47.691Z,2.30
2023-05-05T12:54:56.884Z,2.30
2023-05-05T12:57:11.490Z,1.60
2023-05-05T12:58:14.364Z,1.70
2023-05-05T12:59:23.435Z,2.20
2023-05-05T13:00:26.734Z,1.60
2023-05-05T13:01:30.227Z,2.10
2023-05-05T13:02:36.046Z,2.20
2023-05-05T13:03:39.077Z,1.90
2023-05-05T13:04:50.547Z,1.90
2023-05-05T13:05:53.529Z,1.80
2023-05-05T13:07:13.900Z,2.00
2023-05-05T13:08:18.624Z,1.60
2023-05-05T13:09:27.102Z,2.00
2023-05-05T13:10:31.268Z,1.70
2023-05-05T13:11:38.893Z,1.90
2023-05-05T13:12:42.200Z,1.70
2023-05-05T13:13:45.078Z,1.80
2023-05-05T13:14:48.034Z,1.70
2023-05-05T13:15:50.940Z,2.30
2023-05-05T13:16:53.992Z,2.20
2023-05-05T13:18:01.331Z,2.00
2023-05-05T13:19:04.509Z,1.80
2023-05-05T13:20:10.323Z,2.10
2023-05-05T13:21:13.401Z,1.90
2023-05-05T13:22:16.424Z,1.70
2023-05-05T13:23:20.001Z,2.00
2023-05-05T13:24:31.662Z,1.90
2023-05-05T13:25:41.444Z,2.10
2023-05-05T13:26:44.985Z,1.70
2023-05-05T13:27:48.600Z,2.00
2023-05-05T13:28:51.596Z,1.90
2023-05-05T13:29:54.490Z,2.00
2023-05-05T13:30:58.767Z,1.80
2023-05-05T13:32:01.683Z,2.00
2023-05-05T13:33:04.625Z,2.20
2023-05-05T13:34:07.489Z,2.00
2023-05-05T13:35:12.142Z,2.20
2023-05-05T13:36:16.308Z,2.00
2023-05-05T13:37:19.229Z,1.90
2023-05-05T13:38:22.089Z,2.00
2023-05-05T13:39:25.129Z,1.70
2023-05-05T13:40:27.953Z,1.90
2023-05-05T13:41:30.853Z,1.40
2023-05-05T13:42:33.757Z,1.70
2023-05-05T13:43:36.604Z,1.80
2023-05-05T13:44:39.467Z,1.90
2023-05-05T13:45:42.360Z,2.00
2023-05-05T13:46:45.409Z,1.80
2023-05-05T13:47:48.405Z,2.00
2023-05-05T13:48:56.031Z,2.20
2023-05-05T13:49:59.429Z,2.10
2023-05-05T13:51:02.241Z,2.20
2023-05-05T13:52:05.392Z,1.80
2023-05-05T13:53:08.620Z,2.00
2023-05-05T13:54:11.754Z,1.90
2023-05-05T13:55:14.725Z,1.70
2023-05-05T13:56:19.178Z,2.40
2023-05-05T13:57:22.117Z,2.20
2023-05-05T13:58:25.438Z,1.70
2023-05-05T13:59:28.370Z,1.90
2023-05-05T14:00:31.804Z,2.30
2023-05-05T14:01:34.897Z,1.90
2023-05-05T14:02:37.956Z,1.80
2023-05-05T14:03:40.903Z,2.60
2023-05-05T14:04:43.758Z,1.80
2023-05-05T14:05:46.832Z,2.10
2023-05-05T14:06:49.730Z,1.90
2023-05-05T14:07:54.257Z,1.80
2023-05-05T14:08:57.125Z,1.50
2023-05-05T14:10:00.036Z,1.90
2023-05-05T14:11:03.362Z,1.70
2023-05-05T14:12:06.313Z,1.80
2023-05-05T14:13:09.197Z,2.20
2023-05-05T14:14:12.070Z,2.10
2023-05-05T14:15:14.977Z,1.60
2023-05-05T14:16:17.927Z,1.90
2023-05-05T14:17:20.926Z,1.90
2023-05-05T14:18:24.370Z,1.90
2023-05-05T14:19:27.684Z,1.70
2023-05-05T14:20:30.911Z,1.60
2023-05-05T14:21:33.997Z,1.80
2023-05-05T14:22:37.677Z,1.60
2023-05-05T14:23:40.527Z,1.80
2023-05-05T14:24:43.771Z,2.70
2023-05-05T14:25:46.821Z,1.60
2023-05-05T14:26:50.038Z,2.70
2023-05-05T14:27:54.094Z,1.90
2023-05-05T14:28:56.964Z,1.70
2023-05-05T14:29:59.851Z,1.80
2023-05-05T14:31:02.824Z,2.10
2023-05-05T14:32:05.981Z,2.10
2023-05-05T14:33:08.878Z,1.40
2023-05-05T14:34:11.817Z,1.90
2023-05-05T14:35:14.656Z,2.20
2023-05-05T14:36:17.619Z,1.90
2023-05-05T14:37:20.461Z,1.50
2023-05-05T14:38:23.369Z,1.70
2023-05-05T14:39:26.316Z,1.90